Blanes, Spain
Current Conditions -  °F | °C
As of 10:00 AM on Friday 19 Dec 2014 (Local Time) from LEGE Reporting Station
Few Clouds Few Clouds  
Wind Chill: 46°   Ceiling: Unl
Heat Index: 46°   Visibility: 6mi
Dew Point: 46°   Wind: 2mph
Humidity: 100%   Direction: 20°NNE
Pressure: 30.33"   Gusts: NA
Location:  41.67°N, 2.79°E
Report Text: LEGE 190900Z 02002KT 9999 FEW012 08/08 Q1027
Loading
Personal Weather Stations






























Interactive Weather Map New forecast layout! Learn more

10-Day Weather Forecast

Advertisements
Track Severe Weather on mobile